createdAt,value
2018-10-01T00:00:13.992Z,0.00
2018-10-01T00:01:13.908Z,0.00
2018-10-01T00:02:13.831Z,0.00
2018-10-01T00:03:13.749Z,0.00
2018-10-01T00:04:13.667Z,0.00
2018-10-01T00:05:13.586Z,0.00
2018-10-01T00:06:13.506Z,0.00
2018-10-01T00:07:13.426Z,0.00
2018-10-01T00:08:13.344Z,0.00
2018-10-01T00:09:13.265Z,0.00
2018-10-01T00:10:13.185Z,0.00
2018-10-01T00:11:13.104Z,0.00
2018-10-01T00:12:13.024Z,0.00
2018-10-01T00:13:12.943Z,0.00
2018-10-01T00:14:12.864Z,0.00
2018-10-01T00:15:12.784Z,0.00
2018-10-01T00:16:12.702Z,0.00
2018-10-01T00:17:12.673Z,0.00
2018-10-01T00:18:12.544Z,0.00
2018-10-01T00:19:12.462Z,0.00
2018-10-01T00:20:12.382Z,0.00
2018-10-01T00:21:12.303Z,0.00
2018-10-01T00:22:12.225Z,0.00
2018-10-01T00:23:12.141Z,0.00
2018-10-01T00:24:12.062Z,0.00
2018-10-01T00:25:11.990Z,0.00
2018-10-01T00:26:11.903Z,0.00
2018-10-01T00:27:11.820Z,0.00
2018-10-01T00:28:11.741Z,0.00
2018-10-01T00:29:11.661Z,0.00
2018-10-01T00:30:11.581Z,0.00
2018-10-01T00:31:11.499Z,0.00
2018-10-01T00:32:11.419Z,0.00
2018-10-01T00:33:11.339Z,0.00
2018-10-01T00:34:11.259Z,0.00
2018-10-01T00:35:11.283Z,0.00
2018-10-01T00:36:11.098Z,0.00
2018-10-01T00:37:11.019Z,0.00
2018-10-01T00:38:10.940Z,0.00
2018-10-01T00:39:10.858Z,0.00
2018-10-01T00:40:10.782Z,0.00
2018-10-01T00:41:10.736Z,0.00
2018-10-01T00:42:10.616Z,0.00
2018-10-01T00:43:10.538Z,0.00
2018-10-01T00:44:10.455Z,0.00
2018-10-01T00:45:10.376Z,0.00
2018-10-01T00:46:10.294Z,0.00
2018-10-01T00:47:10.214Z,0.00
2018-10-01T00:48:10.132Z,0.00
2018-10-01T00:49:10.052Z,0.00
2018-10-01T00:50:09.973Z,0.00
2018-10-01T00:51:09.890Z,0.00
2018-10-01T00:52:09.809Z,0.00
2018-10-01T00:53:09.780Z,0.00
2018-10-01T00:54:09.648Z,0.00
2018-10-01T00:55:09.566Z,0.00
2018-10-01T00:56:09.487Z,0.00
2018-10-01T00:57:09.405Z,0.00
2018-10-01T00:58:09.323Z,0.00
2018-10-01T00:59:09.244Z,0.00
2018-10-01T01:00:09.163Z,0.00
2018-10-01T01:01:09.082Z,0.00
2018-10-01T01:02:09.001Z,0.00
2018-10-01T01:03:08.918Z,0.00
2018-10-01T01:04:08.837Z,0.00
2018-10-01T01:05:08.757Z,0.00
2018-10-01T01:06:08.676Z,0.00
2018-10-01T01:07:08.594Z,0.00
2018-10-01T01:08:08.513Z,0.00
2018-10-01T01:09:08.432Z,0.00
2018-10-01T01:10:08.351Z,0.00
2018-10-01T01:11:08.320Z,0.00
2018-10-01T01:12:08.189Z,0.00
2018-10-01T01:13:08.109Z,0.00
2018-10-01T01:14:08.028Z,0.00
2018-10-01T01:15:07.945Z,0.00
2018-10-01T01:16:07.864Z,0.00
2018-10-01T01:17:07.833Z,0.00
2018-10-01T01:18:07.704Z,0.00
2018-10-01T01:19:07.620Z,0.00
2018-10-01T01:20:07.540Z,0.00
2018-10-01T01:21:07.458Z,0.00
2018-10-01T01:22:07.378Z,0.00
2018-10-01T01:23:07.346Z,0.00
2018-10-01T01:24:07.214Z,0.00
2018-10-01T01:25:07.134Z,0.00
2018-10-01T01:26:07.053Z,0.00
2018-10-01T01:27:06.970Z,0.00
2018-10-01T01:28:06.889Z,0.00
2018-10-01T01:29:06.857Z,0.00
2018-10-01T01:30:06.727Z,0.00
2018-10-01T01:31:06.644Z,0.00
2018-10-01T01:32:06.564Z,0.00
2018-10-01T01:33:06.483Z,0.00
2018-10-01T01:34:06.401Z,0.00
2018-10-01T01:35:06.319Z,0.00
2018-10-01T01:36:06.237Z,0.00
2018-10-01T01:37:06.156Z,0.00
2018-10-01T01:38:06.076Z,0.00
2018-10-01T01:39:05.992Z,0.00
2018-10-01T01:40:05.910Z,0.00
2018-10-01T01:41:05.930Z,0.00
2018-10-01T01:42:05.751Z,0.00
2018-10-01T01:43:05.665Z,0.00
2018-10-01T01:44:05.584Z,0.00
2018-10-01T01:45:05.504Z,0.00
2018-10-01T01:46:05.421Z,0.00
2018-10-01T01:47:05.589Z,0.00
2018-10-01T01:48:05.258Z,0.00
2018-10-01T01:49:05.177Z,0.00
2018-10-01T01:50:05.095Z,0.00
2018-10-01T01:51:05.013Z,0.00
2018-10-01T01:52:04.931Z,0.00
2018-10-01T01:53:04.950Z,0.00
2018-10-01T01:54:04.769Z,0.00
2018-10-01T01:55:04.687Z,0.00
2018-10-01T01:56:04.604Z,0.00
2018-10-01T01:57:04.523Z,0.00
2018-10-01T01:58:04.443Z,0.00
2018-10-01T01:59:04.459Z,0.00
2018-10-01T02:00:04.279Z,0.00
2018-10-01T02:01:04.198Z,0.00
2018-10-01T02:02:04.116Z,0.00
2018-10-01T02:03:04.033Z,0.00
2018-10-01T02:04:03.952Z,0.00
2018-10-01T02:05:04.069Z,0.00
2018-10-01T02:06:03.789Z,0.00
2018-10-01T02:07:03.706Z,0.00
2018-10-01T02:08:03.626Z,0.00
2018-10-01T02:09:03.545Z,0.00
2018-10-01T02:10:03.460Z,0.00
2018-10-01T02:11:03.532Z,0.00
2018-10-01T02:12:03.296Z,0.00
2018-10-01T02:13:03.216Z,0.00
2018-10-01T02:14:03.133Z,0.00
2018-10-01T02:15:03.050Z,0.00
2018-10-01T02:16:02.974Z,0.00
2018-10-01T02:17:02.988Z,0.00
2018-10-01T02:18:02.805Z,0.00
2018-10-01T02:19:02.724Z,0.00
2018-10-01T02:20:02.642Z,0.00
2018-10-01T02:21:02.559Z,0.00
2018-10-01T02:22:02.479Z,0.00
2018-10-01T02:23:02.546Z,0.00
2018-10-01T02:24:02.314Z,0.00
2018-10-01T02:25:02.238Z,0.00
2018-10-01T02:26:02.152Z,0.00
2018-10-01T02:27:02.068Z,0.00
2018-10-01T02:28:01.989Z,0.00
2018-10-01T02:29:02.007Z,0.00
2018-10-01T02:30:01.825Z,0.00
2018-10-01T02:31:01.744Z,0.00
2018-10-01T02:32:01.660Z,0.00
2018-10-01T02:33:01.578Z,0.00
2018-10-01T02:34:01.653Z,0.00
2018-10-01T02:35:01.415Z,0.00
2018-10-01T02:36:01.335Z,0.00
2018-10-01T02:37:01.253Z,0.00
2018-10-01T02:38:01.203Z,0.00
2018-10-01T02:39:01.088Z,0.00
2018-10-01T02:40:01.008Z,0.00
2018-10-01T02:41:00.924Z,0.00
2018-10-01T02:42:00.844Z,0.00
2018-10-01T02:43:00.761Z,0.00
2018-10-01T02:44:00.778Z,0.00
2018-10-01T02:45:00.599Z,0.00
2018-10-01T02:46:00.517Z,0.00
2018-10-01T02:47:00.434Z,0.00
2018-10-01T02:48:00.353Z,0.00
2018-10-01T02:49:00.271Z,0.00
2018-10-01T02:50:00.239Z,0.00
2018-10-01T02:51:00.108Z,0.00
2018-10-01T02:52:00.026Z,0.00
2018-10-01T02:52:59.944Z,0.00
2018-10-01T02:53:59.861Z,0.00
2018-10-01T02:54:59.781Z,0.00
2018-10-01T02:55:59.697Z,0.00
2018-10-01T02:56:59.616Z,0.00
2018-10-01T02:57:59.535Z,0.00
2018-10-01T02:58:59.453Z,0.00
2018-10-01T02:59:59.369Z,0.00
2018-10-01T03:00:59.291Z,0.00
2018-10-01T03:01:59.208Z,0.00
2018-10-01T03:02:59.132Z,0.00
2018-10-01T03:03:59.044Z,0.00
2018-10-01T03:04:58.961Z,0.00
2018-10-01T03:05:58.882Z,0.00
2018-10-01T03:06:58.797Z,0.00
2018-10-01T03:07:58.715Z,0.00
2018-10-01T03:08:58.633Z,0.00
2018-10-01T03:09:58.553Z,0.00
2018-10-01T03:10:58.569Z,0.00
2018-10-01T03:11:58.389Z,0.00
2018-10-01T03:12:58.307Z,0.00
2018-10-01T03:13:58.226Z,0.00
2018-10-01T03:14:58.149Z,0.00
2018-10-01T03:15:58.061Z,0.00
2018-10-01T03:16:57.992Z,0.00
2018-10-01T03:17:57.899Z,0.00
2018-10-01T03:18:57.816Z,0.00
2018-10-01T03:19:57.734Z,0.00
2018-10-01T03:20:57.653Z,0.00
2018-10-01T03:21:57.573Z,0.00
2018-10-01T03:22:57.493Z,0.00
2018-10-01T03:23:57.409Z,0.00
2018-10-01T03:24:57.329Z,0.00
2018-10-01T03:25:57.350Z,0.00
2018-10-01T03:26:57.169Z,0.00
2018-10-01T03:27:57.082Z,0.00
2018-10-01T03:28:57.001Z,0.00
2018-10-01T03:29:56.920Z,0.00
2018-10-01T03:30:56.852Z,0.00
2018-10-01T03:31:56.757Z,0.00
2018-10-01T03:32:56.678Z,0.00
2018-10-01T03:33:56.596Z,0.00
2018-10-01T03:34:56.514Z,0.00
2018-10-01T03:35:56.433Z,0.00
2018-10-01T03:36:56.356Z,0.00
2018-10-01T03:37:56.271Z,0.00
2018-10-01T03:38:56.189Z,0.00
2018-10-01T03:39:56.113Z,0.00
2018-10-01T03:40:56.036Z,0.00
2018-10-01T03:41:55.946Z,0.00
2018-10-01T03:42:55.866Z,0.00
2018-10-01T03:43:55.784Z,0.00
2018-10-01T03:44:55.704Z,0.00
2018-10-01T03:45:55.622Z,0.00
2018-10-01T03:46:55.539Z,0.00
2018-10-01T03:47:55.458Z,0.00
2018-10-01T03:48:55.379Z,0.00
2018-10-01T03:49:55.298Z,0.00
2018-10-01T03:50:55.215Z,0.00
2018-10-01T03:51:55.136Z,0.00
2018-10-01T03:52:55.060Z,0.00
2018-10-01T03:53:54.973Z,0.00
2018-10-01T03:54:54.890Z,0.00
2018-10-01T03:55:54.809Z,0.00
2018-10-01T03:56:54.729Z,0.00
2018-10-01T03:57:54.647Z,0.00
2018-10-01T03:58:54.576Z,0.00
2018-10-01T03:59:54.485Z,0.00
2018-10-01T04:00:54.406Z,0.00
2018-10-01T04:01:54.324Z,0.00
2018-10-01T04:02:54.297Z,0.00
2018-10-01T04:03:54.161Z,0.00
2018-10-01T04:04:54.082Z,0.00
2018-10-01T04:05:54.100Z,0.00
2018-10-01T04:06:53.917Z,0.00
2018-10-01T04:07:53.841Z,0.00
2018-10-01T04:08:53.836Z,0.00
2018-10-01T04:09:53.677Z,0.00
2018-10-01T04:10:53.595Z,0.00
2018-10-01T04:11:53.614Z,0.00
2018-10-01T04:12:53.434Z,0.00
2018-10-01T04:13:53.353Z,0.00
2018-10-01T04:14:53.273Z,0.00
2018-10-01T04:15:53.192Z,0.00
2018-10-01T04:16:53.110Z,0.00
2018-10-01T04:17:53.030Z,0.00
2018-10-01T04:18:52.950Z,0.00
2018-10-01T04:19:52.868Z,0.00
2018-10-01T04:20:52.791Z,0.00
2018-10-01T04:21:52.716Z,0.00
2018-10-01T04:22:52.690Z,0.00
2018-10-01T04:23:52.549Z,0.00
2018-10-01T04:24:52.468Z,0.00
2018-10-01T04:25:52.388Z,0.00
2018-10-01T04:26:52.306Z,0.00
2018-10-01T04:27:52.376Z,0.00
2018-10-01T04:28:52.146Z,0.00
2018-10-01T04:29:52.065Z,0.00
2018-10-01T04:30:51.984Z,0.00
2018-10-01T04:31:51.904Z,0.00
2018-10-01T04:32:51.824Z,0.00
2018-10-01T04:33:51.743Z,0.00
2018-10-01T04:34:51.663Z,0.00
2018-10-01T04:35:51.583Z,0.00
2018-10-01T04:36:51.501Z,0.00
2018-10-01T04:37:51.423Z,0.00
2018-10-01T04:38:51.340Z,0.00
2018-10-01T04:39:51.262Z,0.00
2018-10-01T04:40:51.250Z,0.00
2018-10-01T04:41:51.101Z,0.00
2018-10-01T04:42:51.018Z,0.00
2018-10-01T04:43:50.940Z,0.00
2018-10-01T04:44:50.859Z,0.00
2018-10-01T04:45:50.778Z,0.00
2018-10-01T04:46:50.736Z,0.00
2018-10-01T04:47:50.617Z,0.00
2018-10-01T04:48:50.538Z,0.00
2018-10-01T04:49:50.457Z,0.00
2018-10-01T04:50:50.377Z,0.00
2018-10-01T04:51:50.297Z,0.00
2018-10-01T04:52:50.219Z,0.00
2018-10-01T04:53:50.136Z,0.00
2018-10-01T04:54:50.058Z,0.00
2018-10-01T04:55:49.974Z,0.00
2018-10-01T04:56:49.896Z,0.00
2018-10-01T04:57:49.815Z,0.00
2018-10-01T04:58:49.732Z,4.00
2018-10-01T04:59:49.653Z,4.00
2018-10-01T05:00:49.574Z,0.00
2018-10-01T05:01:49.498Z,0.00
2018-10-01T05:02:49.413Z,4.00
2018-10-01T05:03:49.333Z,4.00
2018-10-01T05:04:49.258Z,4.00
2018-10-01T05:05:49.173Z,4.00
2018-10-01T05:06:49.091Z,4.00
2018-10-01T05:07:49.012Z,4.00
2018-10-01T05:08:48.934Z,8.00
2018-10-01T05:09:48.853Z,4.00
2018-10-01T05:10:48.772Z,8.00
2018-10-01T05:11:48.691Z,12.00
2018-10-01T05:12:48.611Z,12.00
2018-10-01T05:13:48.532Z,16.00
2018-10-01T05:14:48.520Z,20.00
2018-10-01T05:15:48.370Z,20.00
2018-10-01T05:16:48.291Z,24.00
2018-10-01T05:17:48.219Z,24.00
2018-10-01T05:18:48.130Z,24.00
2018-10-01T05:19:48.055Z,24.00
2018-10-01T05:20:47.971Z,32.00
2018-10-01T05:21:47.891Z,36.00
2018-10-01T05:22:47.809Z,40.00
2018-10-01T05:23:47.731Z,44.00
2018-10-01T05:24:47.649Z,44.00
2018-10-01T05:25:47.571Z,48.00
2018-10-01T05:26:47.490Z,56.00
2018-10-01T05:27:47.411Z,64.00
2018-10-01T05:28:47.335Z,72.00
2018-10-01T05:29:47.251Z,80.00
2018-10-01T05:30:47.169Z,76.00
2018-10-01T05:31:47.090Z,68.00
2018-10-01T05:32:47.011Z,64.00
2018-10-01T05:33:46.930Z,68.00
2018-10-01T05:34:46.853Z,80.00
2018-10-01T05:35:46.769Z,84.00
2018-10-01T05:36:46.690Z,100.00
2018-10-01T05:37:46.690Z,120.00
2018-10-01T05:38:46.529Z,132.00
2018-10-01T05:39:46.449Z,124.00
2018-10-01T05:40:46.370Z,124.00
2018-10-01T05:41:46.290Z,136.00
2018-10-01T05:42:46.210Z,156.00
2018-10-01T05:43:46.131Z,180.00
2018-10-01T05:44:46.051Z,196.00
2018-10-01T05:45:45.971Z,204.00
2018-10-01T05:46:45.894Z,212.00
2018-10-01T05:47:45.811Z,216.00
2018-10-01T05:48:45.732Z,232.00
2018-10-01T05:49:45.651Z,240.00
2018-10-01T05:50:45.572Z,248.00
2018-10-01T05:51:45.491Z,252.00
2018-10-01T05:52:45.414Z,256.00
2018-10-01T05:53:45.331Z,260.00
2018-10-01T05:54:45.252Z,284.00
2018-10-01T05:55:45.173Z,328.00
2018-10-01T05:56:45.094Z,364.00
2018-10-01T05:57:45.109Z,388.00
2018-10-01T05:58:45.034Z,400.00
2018-10-01T05:59:44.855Z,408.00
2018-10-01T06:00:44.775Z,408.00
2018-10-01T06:01:44.697Z,420.00
2018-10-01T06:02:44.614Z,444.00
2018-10-01T06:03:44.535Z,468.00
2018-10-01T06:04:44.534Z,488.00
2018-10-01T06:05:44.377Z,500.00
2018-10-01T06:06:44.296Z,512.00
2018-10-01T06:07:44.218Z,536.00
2018-10-01T06:08:44.138Z,556.00
2018-10-01T06:09:44.059Z,584.00
2018-10-01T06:10:43.977Z,608.00
2018-10-01T06:11:43.920Z,624.00
2018-10-01T06:12:43.819Z,644.00
2018-10-01T06:13:43.743Z,668.00
2018-10-01T06:14:43.658Z,696.00
2018-10-01T06:15:43.578Z,740.00
2018-10-01T06:16:43.499Z,792.00
2018-10-01T06:17:43.421Z,840.00
2018-10-01T06:18:43.343Z,872.00
2018-10-01T06:19:43.264Z,892.00
2018-10-01T06:20:43.233Z,904.00
2018-10-01T06:21:43.115Z,924.00
2018-10-01T06:22:43.021Z,940.00
2018-10-01T06:23:42.943Z,960.00
2018-10-01T06:24:42.958Z,988.00
2018-10-01T06:25:43.035Z,1040.00
2018-10-01T06:26:42.703Z,1124.00
2018-10-01T06:27:42.623Z,1224.00
2018-10-01T06:28:42.545Z,1316.00
2018-10-01T06:29:42.466Z,1360.00
2018-10-01T06:30:42.385Z,1372.00
2018-10-01T06:31:42.309Z,1396.00
2018-10-01T06:32:42.227Z,1428.00
2018-10-01T06:33:42.147Z,1500.00
2018-10-01T06:34:42.067Z,1540.00
2018-10-01T06:35:41.990Z,1548.00
2018-10-01T06:36:41.908Z,1564.00
2018-10-01T06:37:41.829Z,1572.00
2018-10-01T06:38:41.749Z,1564.00
2018-10-01T06:39:41.670Z,1540.00
2018-10-01T06:40:41.594Z,1560.00
2018-10-01T06:41:41.598Z,1632.00
2018-10-01T06:42:41.431Z,1700.00
2018-10-01T06:43:41.352Z,1600.00
2018-10-01T06:44:41.272Z,1408.00
2018-10-01T06:45:41.193Z,1304.00
2018-10-01T06:46:41.114Z,1324.00
2018-10-01T06:47:41.035Z,1216.00
2018-10-01T06:48:40.955Z,1108.00
2018-10-01T06:49:40.875Z,1068.00
2018-10-01T06:50:40.851Z,948.00
2018-10-01T06:51:40.717Z,1120.00
2018-10-01T06:52:40.639Z,1452.00
2018-10-01T06:53:40.565Z,1728.00
2018-10-01T06:54:40.480Z,1860.00
2018-10-01T06:55:40.400Z,1688.00
2018-10-01T06:56:40.323Z,1552.00
2018-10-01T06:57:40.242Z,1708.00
2018-10-01T06:58:40.163Z,1920.00
2018-10-01T06:59:40.089Z,2088.00
2018-10-01T07:00:40.005Z,2252.00
2018-10-01T07:01:40.028Z,2364.00
2018-10-01T07:02:39.848Z,2368.00
2018-10-01T07:03:39.768Z,2256.00
2018-10-01T07:04:39.689Z,2084.00
2018-10-01T07:05:39.676Z,2036.00
2018-10-01T07:06:39.531Z,2108.00
2018-10-01T07:07:39.453Z,1988.00
2018-10-01T07:08:39.374Z,1864.00
2018-10-01T07:09:39.297Z,1856.00
2018-10-01T07:10:39.218Z,1936.00
2018-10-01T07:11:39.352Z,1984.00
2018-10-01T07:12:39.061Z,2288.00
2018-10-01T07:13:38.983Z,2644.00
2018-10-01T07:14:38.904Z,2840.00
2018-10-01T07:15:38.825Z,2812.00
2018-10-01T07:16:38.749Z,2656.00
2018-10-01T07:17:38.669Z,2572.00
2018-10-01T07:18:38.589Z,2596.00
2018-10-01T07:19:38.513Z,2660.00
2018-10-01T07:20:38.434Z,2948.00
2018-10-01T07:21:38.455Z,3132.00
2018-10-01T07:22:38.413Z,3340.00
2018-10-01T07:23:38.198Z,3520.00
2018-10-01T07:24:38.120Z,3588.00
2018-10-01T07:25:38.044Z,3596.00
2018-10-01T07:26:37.967Z,3572.00
2018-10-01T07:27:37.886Z,3416.00
2018-10-01T07:28:37.807Z,3384.00
2018-10-01T07:29:37.731Z,3428.00
2018-10-01T07:30:37.652Z,3536.00
2018-10-01T07:31:37.674Z,3572.00
2018-10-01T07:32:37.496Z,3544.00
2018-10-01T07:33:37.422Z,3440.00
2018-10-01T07:34:37.341Z,3376.00
2018-10-01T07:35:37.266Z,3380.00
2018-10-01T07:36:37.186Z,3420.00
2018-10-01T07:37:37.108Z,3464.00
2018-10-01T07:38:37.029Z,3496.00
2018-10-01T07:39:36.952Z,3576.00
2018-10-01T07:40:36.876Z,3720.00
2018-10-01T07:41:36.797Z,3908.00
2018-10-01T07:42:36.718Z,4092.00
2018-10-01T07:43:36.641Z,4208.00
2018-10-01T07:44:36.564Z,4280.00
2018-10-01T07:45:36.495Z,4300.00
2018-10-01T07:46:36.427Z,4352.00
2018-10-01T07:47:36.431Z,4468.00
2018-10-01T07:48:36.259Z,4700.00
2018-10-01T07:49:36.177Z,4936.00
2018-10-01T07:50:36.174Z,5224.00
2018-10-01T07:51:36.022Z,5412.00
2018-10-01T07:52:35.944Z,5548.00
2018-10-01T07:53:35.996Z,5648.00
2018-10-01T07:54:35.790Z,5716.00
2018-10-01T07:55:35.713Z,5764.00
2018-10-01T07:56:35.635Z,5844.00
2018-10-01T07:57:35.629Z,5960.00
2018-10-01T07:58:35.484Z,6036.00
2018-10-01T07:59:35.494Z,6068.00
2018-10-01T08:00:35.328Z,6064.00
2018-10-01T08:01:35.251Z,6060.00
2018-10-01T08:02:35.251Z,6032.00
2018-10-01T08:03:35.096Z,6012.00
2018-10-01T08:04:35.020Z,6016.00
2018-10-01T08:05:34.964Z,6064.00
2018-10-01T08:06:34.864Z,6160.00
2018-10-01T08:07:34.788Z,6288.00
2018-10-01T08:08:34.785Z,6372.00
2018-10-01T08:09:34.648Z,6332.00
2018-10-01T08:10:34.558Z,6244.00
2018-10-01T08:11:34.481Z,6088.00
2018-10-01T08:12:34.406Z,5940.00
2018-10-01T08:13:34.329Z,5816.00
2018-10-01T08:14:34.297Z,5740.00
2018-10-01T08:15:34.176Z,5652.00
2018-10-01T08:16:34.099Z,5552.00
2018-10-01T08:17:34.023Z,5484.00
2018-10-01T08:18:33.947Z,5468.00
2018-10-01T08:19:33.870Z,5520.00
2018-10-01T08:20:33.851Z,5660.00
2018-10-01T08:21:33.720Z,5876.00
2018-10-01T08:22:33.641Z,6072.00
2018-10-01T08:23:33.632Z,6212.00
2018-10-01T08:24:33.488Z,6336.00
2018-10-01T08:25:33.410Z,6460.00
2018-10-01T08:26:33.405Z,6560.00
2018-10-01T08:27:33.258Z,6644.00
2018-10-01T08:28:33.182Z,6752.00
2018-10-01T08:29:33.158Z,6852.00
2018-10-01T08:30:33.027Z,6968.00
2018-10-01T08:31:32.951Z,7060.00
2018-10-01T08:32:32.901Z,7012.00
2018-10-01T08:33:32.798Z,7040.00
2018-10-01T08:34:32.721Z,7024.00
2018-10-01T08:35:32.652Z,7036.00
2018-10-01T08:36:32.568Z,6976.00
2018-10-01T08:37:32.491Z,6852.00
2018-10-01T08:38:32.502Z,6804.00
2018-10-01T08:39:32.337Z,6692.00
2018-10-01T08:40:32.261Z,6604.00
2018-10-01T08:41:32.223Z,6644.00
2018-10-01T08:42:32.110Z,6764.00
2018-10-01T08:43:32.032Z,6888.00
2018-10-01T08:44:32.023Z,6920.00
2018-10-01T08:45:31.878Z,6912.00
2018-10-01T08:46:31.802Z,6924.00
2018-10-01T08:47:31.875Z,7048.00
2018-10-01T08:48:31.650Z,7208.00
2018-10-01T08:49:31.573Z,7268.00
2018-10-01T08:50:31.560Z,7288.00
2018-10-01T08:51:31.423Z,7304.00
2018-10-01T08:52:31.346Z,7320.00
2018-10-01T08:53:31.331Z,7292.00
2018-10-01T08:54:31.193Z,7300.00
2018-10-01T08:55:31.115Z,7280.00
2018-10-01T08:56:31.099Z,7276.00
2018-10-01T08:57:31.012Z,7372.00
2018-10-01T08:58:30.887Z,7488.00
2018-10-01T08:59:30.835Z,7552.00
2018-10-01T09:00:30.734Z,7576.00
2018-10-01T09:01:30.658Z,7720.00
2018-10-01T09:02:30.639Z,7740.00
2018-10-01T09:03:30.504Z,7768.00
2018-10-01T09:04:30.429Z,7812.00
2018-10-01T09:05:30.373Z,7916.00
2018-10-01T09:06:30.275Z,8124.00
2018-10-01T09:07:30.200Z,8308.00
2018-10-01T09:08:30.137Z,8600.00
2018-10-01T09:09:30.048Z,8616.00
2018-10-01T09:10:29.971Z,8476.00
2018-10-01T09:11:29.943Z,8316.00
2018-10-01T09:12:29.820Z,8276.00
2018-10-01T09:13:29.745Z,8408.00
2018-10-01T09:14:29.714Z,8172.00
2018-10-01T09:15:29.591Z,7860.00
2018-10-01T09:16:29.517Z,7324.00
2018-10-01T09:17:29.490Z,6816.00
2018-10-01T09:18:29.364Z,7176.00
2018-10-01T09:19:29.296Z,7984.00
2018-10-01T09:20:29.325Z,8128.00
2018-10-01T09:21:29.267Z,8456.00
2018-10-01T09:22:29.210Z,8520.00
2018-10-01T09:23:28.997Z,8520.00
2018-10-01T09:24:28.913Z,8428.00
2018-10-01T09:25:28.834Z,8068.00
2018-10-01T09:26:28.825Z,7556.00
2018-10-01T09:27:28.690Z,7204.00
2018-10-01T09:28:28.608Z,8132.00
2018-10-01T09:29:28.612Z,8420.00
2018-10-01T09:30:28.457Z,8592.00
2018-10-01T09:31:28.379Z,8472.00
2018-10-01T09:32:28.323Z,8556.00
2018-10-01T09:33:28.236Z,8892.00
2018-10-01T09:34:28.153Z,8828.00
2018-10-01T09:35:28.157Z,8912.00
2018-10-01T09:36:28.003Z,8916.00
2018-10-01T09:37:27.929Z,8796.00
2018-10-01T09:38:27.861Z,8692.00
2018-10-01T09:39:27.776Z,8560.00
2018-10-01T09:40:27.748Z,8608.00
2018-10-01T09:41:27.626Z,8696.00
2018-10-01T09:42:27.549Z,8712.00
2018-10-01T09:43:27.475Z,8696.00
2018-10-01T09:44:27.479Z,8736.00
2018-10-01T09:45:27.356Z,8816.00
2018-10-01T09:46:27.263Z,8740.00
2018-10-01T09:47:27.222Z,8848.00
2018-10-01T09:48:27.100Z,8908.00
2018-10-01T09:49:27.021Z,8912.00
2018-10-01T09:50:26.964Z,8948.00
2018-10-01T09:51:26.869Z,8840.00
2018-10-01T09:52:26.875Z,8800.00
2018-10-01T09:53:26.720Z,8652.00
2018-10-01T09:54:26.643Z,8600.00
2018-10-01T09:55:26.567Z,8556.00
2018-10-01T09:56:26.545Z,8196.00
2018-10-01T09:57:26.418Z,8132.00
2018-10-01T09:58:26.371Z,7956.00
2018-10-01T09:59:26.266Z,7820.00
2018-10-01T10:00:26.192Z,7912.00
2018-10-01T10:01:26.116Z,8388.00
2018-10-01T10:02:26.072Z,9052.00
2018-10-01T10:03:25.964Z,9352.00
2018-10-01T10:04:26.000Z,9484.00
2018-10-01T10:05:25.815Z,9964.00
2018-10-01T10:06:25.738Z,9976.00
2018-10-01T10:07:25.663Z,10040.00
2018-10-01T10:08:25.607Z,10008.00
2018-10-01T10:09:25.537Z,9972.00
2018-10-01T10:10:25.485Z,9760.00
2018-10-01T10:11:25.448Z,9428.00
2018-10-01T10:12:25.287Z,9132.00
2018-10-01T10:13:25.215Z,8968.00
2018-10-01T10:14:25.157Z,8968.00
2018-10-01T10:15:25.059Z,9108.00
2018-10-01T10:16:25.128Z,9144.00
2018-10-01T10:17:24.959Z,10676.00
2018-10-01T10:18:24.840Z,8876.00
2018-10-01T10:19:24.760Z,9304.00
2018-10-01T10:20:24.692Z,9300.00
2018-10-01T10:21:24.609Z,9964.00
2018-10-01T10:22:24.588Z,13244.00
2018-10-01T10:23:24.458Z,13500.00
2018-10-01T10:24:24.383Z,11724.00
2018-10-01T10:25:24.308Z,13796.00
2018-10-01T10:26:24.284Z,15568.00
2018-10-01T10:27:24.157Z,13900.00
2018-10-01T10:28:24.138Z,11512.00
2018-10-01T10:29:24.009Z,11000.00
2018-10-01T10:30:23.935Z,10800.00
2018-10-01T10:31:23.861Z,11628.00
2018-10-01T10:32:23.824Z,12884.00
2018-10-01T10:33:23.712Z,12800.00
2018-10-01T10:34:23.663Z,11696.00
2018-10-01T10:35:23.618Z,9440.00
2018-10-01T10:36:23.488Z,7324.00
2018-10-01T10:37:23.413Z,6396.00
2018-10-01T10:38:23.400Z,6076.00
2018-10-01T10:39:23.277Z,7344.00
2018-10-01T10:40:23.190Z,7936.00
2018-10-01T10:41:23.115Z,5640.00
2018-10-01T10:42:23.042Z,3668.00
2018-10-01T10:43:22.972Z,2884.00
2018-10-01T10:44:22.900Z,2920.00
2018-10-01T10:45:22.819Z,2804.00
2018-10-01T10:46:22.742Z,2196.00
2018-10-01T10:47:22.667Z,1812.00
2018-10-01T10:48:22.594Z,1604.00
2018-10-01T10:49:22.522Z,1884.00
2018-10-01T10:50:22.462Z,2592.00
2018-10-01T10:51:22.468Z,3628.00
2018-10-01T10:52:22.293Z,4440.00
2018-10-01T10:53:22.218Z,5240.00
2018-10-01T10:54:22.143Z,5184.00
2018-10-01T10:55:22.071Z,5204.00
2018-10-01T10:56:22.052Z,5584.00
2018-10-01T10:57:22.025Z,5600.00
2018-10-01T10:58:21.839Z,5904.00
2018-10-01T10:59:21.765Z,5920.00
2018-10-01T11:00:21.689Z,5128.00
2018-10-01T11:01:21.615Z,4588.00
2018-10-01T11:02:21.582Z,4608.00
2018-10-01T11:03:21.462Z,4636.00
2018-10-01T11:04:21.387Z,4568.00
2018-10-01T11:05:21.311Z,4804.00
2018-10-01T11:06:21.234Z,4872.00
2018-10-01T11:07:21.159Z,5076.00
2018-10-01T11:08:21.173Z,5096.00
2018-10-01T11:09:21.006Z,5248.00
2018-10-01T11:10:20.933Z,5712.00
2018-10-01T11:11:20.856Z,6244.00
2018-10-01T11:12:20.778Z,6576.00
2018-10-01T11:13:20.702Z,6600.00
2018-10-01T11:14:20.829Z,6472.00
2018-10-01T11:15:20.607Z,6904.00
2018-10-01T11:16:20.474Z,5956.00
2018-10-01T11:17:20.399Z,5592.00
2018-10-01T11:18:20.432Z,5584.00
2018-10-01T11:19:20.549Z,5636.00
2018-10-01T11:20:20.385Z,6332.00
2018-10-01T11:21:20.198Z,7484.00
2018-10-01T11:22:20.037Z,7960.00
2018-10-01T11:23:19.991Z,8460.00
2018-10-01T11:24:19.865Z,7572.00
2018-10-01T11:25:19.793Z,6792.00
2018-10-01T11:26:19.713Z,6256.00
2018-10-01T11:27:19.704Z,4864.00
2018-10-01T11:28:19.561Z,4600.00
2018-10-01T11:29:19.589Z,4884.00
2018-10-01T11:30:19.409Z,5852.00
2018-10-01T11:31:19.333Z,7200.00
2018-10-01T11:32:19.257Z,8404.00
2018-10-01T11:33:19.257Z,9564.00
2018-10-01T11:34:19.176Z,10204.00
2018-10-01T11:35:19.166Z,10728.00
2018-10-01T11:36:18.954Z,11536.00
2018-10-01T11:37:18.879Z,11300.00
2018-10-01T11:38:18.803Z,9864.00
2018-10-01T11:39:18.887Z,8564.00
2018-10-01T11:40:18.651Z,7832.00
2018-10-01T11:41:18.580Z,7628.00
2018-10-01T11:42:18.499Z,6836.00
2018-10-01T11:43:18.424Z,5908.00
2018-10-01T11:44:18.349Z,6076.00
2018-10-01T11:45:18.490Z,6720.00
2018-10-01T11:46:18.196Z,7216.00
2018-10-01T11:47:18.122Z,6384.00
2018-10-01T11:48:18.048Z,5940.00
2018-10-01T11:49:17.971Z,4632.00
2018-10-01T11:50:17.895Z,3596.00
2018-10-01T11:51:17.880Z,3172.00
2018-10-01T11:52:17.745Z,2788.00
2018-10-01T11:53:17.688Z,2980.00
2018-10-01T11:54:17.657Z,3948.00
2018-10-01T11:55:17.520Z,5500.00
2018-10-01T11:56:17.492Z,7576.00
2018-10-01T11:57:17.507Z,10492.00
2018-10-01T11:58:17.290Z,11576.00
2018-10-01T11:59:17.215Z,12012.00
2018-10-01T12:00:17.140Z,10432.00
2018-10-01T12:01:17.065Z,9972.00
2018-10-01T12:02:16.988Z,11612.00
2018-10-01T12:03:17.020Z,9296.00
2018-10-01T12:04:16.950Z,7948.00
2018-10-01T12:05:16.763Z,8320.00
2018-10-01T12:06:16.690Z,7512.00
2018-10-01T12:07:16.662Z,6324.00
2018-10-01T12:08:16.548Z,6940.00
2018-10-01T12:09:16.557Z,7164.00
2018-10-01T12:10:16.448Z,7768.00
2018-10-01T12:11:16.311Z,81920.00
2018-10-01T12:12:16.234Z,86112.00
2018-10-01T12:13:16.161Z,85728.00
2018-10-01T12:14:16.084Z,85344.00
2018-10-01T12:15:16.078Z,82656.00
2018-10-01T12:16:16.042Z,85376.00
2018-10-01T12:17:15.863Z,80736.00
2018-10-01T12:18:15.789Z,79360.00
2018-10-01T12:19:15.717Z,79424.00
2018-10-01T12:20:18.264Z,82592.00
2018-10-01T12:21:15.615Z,81856.00
2018-10-01T12:22:15.534Z,78944.00
2018-10-01T12:23:15.480Z,71296.00
2018-10-01T12:24:15.361Z,65728.00
2018-10-01T12:25:15.292Z,49056.00
2018-10-01T12:26:15.222Z,41536.00
2018-10-01T12:27:15.249Z,41568.00
2018-10-01T12:28:15.084Z,41984.00
2018-10-01T12:29:15.165Z,42720.00
2018-10-01T12:30:14.948Z,43936.00
2018-10-01T12:31:14.881Z,45152.00
2018-10-01T12:32:14.814Z,46368.00
2018-10-01T12:33:15.444Z,45312.00
2018-10-01T12:34:14.681Z,45792.00